Time;durP1;ratioP1;P1;durP2;ratioP2;P2;SDS_P1;SDS_P2;PMS_P1;PMS_P2;Temp;Humidity;BMP_temperature;BMP_pressure;BME280_temperature;BME280_humidity;BME280_pressure;Samples;Min_cycle;Max_cycle;Signal;HPM_P1;HPM_P2
2022/12/30 00:00:30;;;;;;;3.60;1.20;;;10.30;94.50;;;10.72;62.04;98584.53;4935147;28;124077;-78
2022/12/30 00:02:57;;;;;;;1.20;0.83;;;10.20;94.50;;;10.74;61.89;98586.97;4934801;28;123861;-78
2022/12/30 00:05:27;;;;;;;1.40;1.00;;;10.20;94.50;;;10.74;61.91;98573.16;4935884;28;114045;-77
2022/12/30 00:07:53;;;;;;;0.87;0.77;;;10.20;94.50;;;10.72;62.08;98578.16;4949693;28;113739;-77
2022/12/30 00:10:20;;;;;;;1.20;0.95;;;10.20;94.50;;;10.70;61.96;98580.47;4947529;28;123769;-77
2022/12/30 00:35:14;;;;;;;1.20;1.00;;;10.20;94.60;;;10.66;62.56;98596.03;4936759;28;124872;-79
2022/12/30 00:37:40;;;;;;;1.00;0.90;;;10.20;94.60;;;10.66;62.58;98602.38;4943815;28;114855;-78
2022/12/30 00:40:07;;;;;;;1.60;1.00;;;10.20;94.60;;;10.65;62.41;98594.41;4946893;28;113881;-78
2022/12/30 00:45:19;;;;;;;1.20;1.00;;;10.20;94.70;;;10.60;62.42;98604.44;4942835;28;124354;-78
2022/12/30 00:47:46;;;;;;;1.00;0.80;;;10.50;94.80;;;10.60;62.28;98609.97;4946018;28;114049;-77
2022/12/30 00:58:27;;;;;;;1.40;0.90;;;10.10;94.80;;;10.54;63.02;98597.44;4958964;28;114676;-78
2022/12/30 01:00:55;;;;;;;1.60;1.17;;;10.10;94.90;;;10.54;62.85;98593.88;4966938;28;114098;-79
2022/12/30 01:03:22;;;;;;;2.50;0.90;;;10.10;94.90;;;10.54;62.79;98607.69;4963213;28;124076;-78
2022/12/30 01:05:48;;;;;;;1.00;0.90;;;10.10;94.90;;;10.53;62.96;98620.69;4968701;28;123964;-77
2022/12/30 01:08:15;;;;;;;1.10;0.90;;;10.10;94.90;;;10.53;62.61;98614.31;4961673;28;114556;-78
2022/12/30 01:10:41;;;;;;;1.10;0.90;;;10.10;94.90;;;10.54;62.85;98622.31;4953871;28;114494;-78
2022/12/30 01:13:08;;;;;;;1.03;0.93;;;10.30;95.10;;;10.55;62.88;98623.91;4953738;28;124083;-78
2022/12/30 01:15:35;;;;;;;1.17;0.90;;;10.10;95.00;;;10.57;63.02;98631.91;4954720;28;123514;-78
2022/12/30 01:18:02;;;;;;;2.97;1.03;;;10.10;95.00;;;10.59;62.90;98637.94;4948719;28;115257;-78
2022/12/30 01:20:28;;;;;;;1.30;0.90;;;10.10;95.00;;;10.58;62.83;98639.84;4951411;28;114925;-77
2022/12/30 01:22:56;;;;;;;1.17;1.07;;;10.10;95.30;;;10.57;62.97;98649.28;4990902;28;124208;-78
2022/12/30 01:25:22;;;;;;;1.40;0.90;;;11.20;95.50;;;10.59;62.79;98647.03;5003044;28;122909;-78
2022/12/30 01:27:52;;;;;;;1.20;0.90;;;10.10;95.10;;;10.60;62.92;98651.41;4972926;28;114525;-78
2022/12/30 01:30:18;;;;;;;1.13;1.03;;;10.10;95.10;;;10.60;62.70;98637.59;4972334;28;114095;-78
2022/12/30 01:32:44;;;;;;;1.43;1.00;;;10.10;95.10;;;10.58;62.85;98648.16;4972240;28;123819;-76
2022/12/30 01:35:12;;;;;;;1.33;1.10;;;10.20;95.10;;;10.58;62.60;98650.91;4969124;28;123885;-76
2022/12/30 01:37:38;;;;;;;1.00;0.90;;;10.10;95.00;;;10.58;62.83;98650.09;4964131;28;114274;-76
2022/12/30 01:40:06;;;;;;;1.30;1.10;;;10.10;95.10;;;10.56;63.07;98652.38;4968118;28;114212;-77
2022/12/30 01:42:39;;;;;;;1.47;1.00;;;10.10;95.00;;;10.55;62.93;98654.31;4968960;28;123427;-77
2022/12/30 01:45:23;;;;;;;1.50;0.90;;;10.10;95.10;;;10.52;63.17;98663.22;4967570;28;123839;-76
2022/12/30 01:48:10;;;;;;;1.60;1.00;;;10.10;95.10;;;10.50;63.37;98670.19;4968020;28;113821;-76
2022/12/30 01:50:59;;;;;;;1.23;1.07;;;10.10;95.10;;;10.47;62.88;98662.56;4967037;28;113105;-76
2022/12/30 01:53:41;;;;;;;1.63;1.10;;;10.10;95.10;;;10.45;62.95;98662.88;4949779;28;123351;-76
2022/12/30 01:56:18;;;;;;;1.70;1.10;;;10.00;95.10;;;10.43;63.38;98670.66;4948604;28;122487;-77
2022/12/30 01:58:55;;;;;;;0.80;0.80;;;10.00;95.10;;;10.37;63.24;98663.63;4968116;28;114028;-77
2022/12/30 02:01:21;;;;;;;1.03;0.93;;;9.00;95.20;;;10.31;63.53;98656.59;4968489;28;113903;-77
2022/12/30 02:04:11;;;;;;;0.87;0.80;;;9.90;95.60;;;10.27;63.98;98659.19;4967769;28;124079;-77
2022/12/30 02:06:57;;;;;;;1.00;0.80;;;9.80;95.60;;;10.22;63.50;98655.69;4968532;28;123745;-77
2022/12/30 02:09:26;;;;;;;1.20;0.93;;;9.80;95.70;;;10.14;63.86;98660.81;4959875;28;115256;-76
2022/12/30 02:11:53;;;;;;;3.63;1.07;;;9.70;95.70;;;10.10;64.13;98661.75;4960505;28;115449;-77
2022/12/30 02:14:20;;;;;;;1.00;0.80;;;9.80;95.90;;;10.08;64.22;98672.31;4960957;28;124033;-76
2022/12/30 02:17:13;;;;;;;2.60;0.90;;;9.80;95.90;;;10.05;64.44;98657.19;4966955;28;124330;-76
2022/12/30 02:20:17;;;;;;;1.07;0.97;;;9.70;96.20;;;10.02;64.57;98644.03;4968499;28;114862;-77
2022/12/30 02:23:28;;;;;;;0.90;0.80;;;9.70;96.00;;;10.03;64.23;98637.38;5002693;28;113503;-77
2022/12/30 02:27:04;;;;;;;1.43;0.90;;;9.70;96.10;;;10.03;64.23;98651.16;4970408;28;124002;-76
2022/12/30 02:29:43;;;;;;;1.80;0.87;;;9.60;96.10;;;10.05;64.26;98665.47;4991039;28;123993;-76
2022/12/30 02:32:25;;;;;;;1.20;1.10;;;9.60;96.10;;;10.07;64.18;98673.44;4971015;28;114465;-77
2022/12/30 02:35:15;;;;;;;1.33;1.23;;;9.60;96.10;;;10.05;64.30;98682.03;4967672;28;114095;-77
2022/12/30 02:38:09;;;;;;;2.40;1.20;;;9.60;96.10;;;10.05;64.41;98675.72;4973573;28;123866;-76
2022/12/30 02:46:58;;;;;;;0.80;0.77;;;9.60;96.20;;;10.06;64.12;98685.59;4974676;28;114567;-76
2022/12/30 02:49:26;;;;;;;1.50;0.80;;;9.60;96.10;;;10.06;64.54;98689.19;4971991;28;124208;-77
2022/12/30 02:54:38;;;;;;;2.30;1.20;;;9.60;96.20;;;10.09;64.11;98691.31;4961184;28;114791;-76
2022/12/30 02:57:29;;;;;;;1.00;0.80;;;9.60;96.20;;;10.11;64.13;98686.31;4973398;28;113263;-76
2022/12/30 03:06:35;;;;;;;1.13;0.90;;;9.60;96.10;;;10.06;64.33;98689.19;4999716;28;115754;-76
2022/12/30 03:09:36;;;;;;;1.00;0.90;;;9.60;96.10;;;10.06;63.91;98699.41;4968674;28;114920;-76
2022/12/30 03:12:04;;;;;;;1.30;0.97;;;9.60;96.30;;;10.04;64.07;98713.50;4966538;28;124203;-77
2022/12/30 03:14:46;;;;;;;1.00;0.80;;;9.60;96.00;;;10.06;64.00;98713.22;4954883;28;123022;-76
2022/12/30 03:17:25;;;;;;;1.07;0.97;;;9.60;96.00;;;10.06;63.90;98713.22;4968689;28;114285;-76
2022/12/30 03:20:06;;;;;;;1.30;1.00;;;9.60;96.00;;;10.05;63.89;98704.13;4965224;28;113930;-77
2022/12/30 03:28:12;;;;;;;2.60;0.90;;;9.60;96.00;;;10.05;63.71;98708.84;4972768;28;114844;-76
2022/12/30 03:30:49;;;;;;;1.20;1.00;;;9.60;95.90;;;10.04;63.82;98709.94;4957505;28;113898;-75
2022/12/30 03:33:16;;;;;;;2.00;0.90;;;9.50;95.90;;;10.02;63.66;98702.00;4967999;28;123602;-76
2022/12/30 03:36:18;;;;;;;1.03;0.93;;;9.60;95.90;;;10.02;63.49;98699.22;4969770;28;124061;-77
2022/12/30 03:38:52;;;;;;;1.20;0.97;;;9.60;95.90;;;10.02;63.67;98704.75;4956634;28;114224;-76
2022/12/30 03:41:21;;;;;;;1.27;0.90;;;9.50;96.10;;;10.01;63.91;98707.81;4952188;28;114216;-76
2022/12/30 03:43:49;;;;;;;1.00;0.90;;;9.60;95.80;;;10.01;63.41;98702.28;4966366;28;123755;-76
2022/12/30 03:46:19;;;;;;;1.10;0.90;;;9.50;95.80;;;10.01;63.56;98705.84;4968026;28;123905;-76
2022/12/30 03:48:45;;;;;;;1.20;1.07;;;9.50;95.80;;;9.98;63.63;98698.19;4974503;28;114331;-77
2022/12/30 03:51:11;;;;;;;1.40;0.90;;;9.80;95.90;;;9.97;63.69;98696.59;4968998;28;112967;-76
2022/12/30 03:53:38;;;;;;;1.30;0.90;;;9.50;95.70;;;9.98;63.46;98702.91;4994173;28;124296;-77
2022/12/30 03:56:05;;;;;;;1.07;0.97;;;9.50;95.80;;;9.95;63.19;98687.78;4969577;28;122889;-76
2022/12/30 03:58:31;;;;;;;1.40;1.00;;;9.40;95.70;;;9.93;63.59;98685.31;4959306;28;114824;-77
2022/12/30 04:00:58;;;;;;;1.27;1.00;;;9.40;95.70;;;9.91;63.64;98690.38;4942188;28;116284;-77
2022/12/30 04:03:24;;;;;;;1.10;1.00;;;9.30;96.00;;;9.90;63.20;98690.66;4969002;28;124070;-77
2022/12/30 04:05:55;;;;;;;2.10;1.07;;;9.40;95.70;;;9.88;63.18;98690.16;4972062;28;123611;-77
2022/12/30 04:08:22;;;;;;;0.90;0.80;;;9.40;95.70;;;9.86;63.65;98698.75;4969395;28;114319;-77
2022/12/30 04:10:50;;;;;;;3.10;1.20;;;9.40;95.70;;;9.84;63.52;98691.91;4969840;28;113773;-77
2022/12/30 04:13:16;;;;;;;1.53;1.20;;;9.40;95.70;;;9.82;63.32;98683.94;4961652;28;124009;-77
2022/12/30 04:15:49;;;;;;;1.40;1.10;;;9.40;95.70;;;9.83;63.14;98681.97;4963133;28;123849;-77
2022/12/30 04:18:16;;;;;;;0.80;0.80;;;10.10;95.50;;;9.83;63.70;98680.06;4967759;28;114384;-76
2022/12/30 04:20:43;;;;;;;1.80;1.00;;;9.40;95.70;;;9.82;62.96;98675.66;4968206;28;113782;-76
2022/12/30 04:23:09;;;;;;;1.13;1.00;;;9.30;95.60;;;9.80;63.18;98671.56;4963628;28;123970;-76
2022/12/30 04:25:36;;;;;;;1.00;0.90;;;9.40;95.70;;;9.77;63.02;98675.78;4982900;28;123189;-76
2022/12/30 04:28:03;;;;;;;2.17;1.00;;;9.50;95.70;;;9.73;63.39;98681.09;4961388;28;114031;-76
2022/12/30 04:30:29;;;;;;;1.53;0.97;;;9.20;95.50;;;9.70;63.29;98684.47;4960915;28;113899;-76
2022/12/30 04:32:55;;;;;;;1.30;1.03;;;11.30;95.90;;;9.67;63.49;98687.88;4961725;28;124764;-77
2022/12/30 04:35:22;;;;;;;0.90;0.80;;;9.20;95.50;;;9.68;62.95;98685.91;4968956;28;124224;-76
2022/12/30 04:37:50;;;;;;;3.00;1.10;;;9.20;95.50;;;9.65;62.98;98679.06;4968302;28;114337;-76
2022/12/30 04:40:16;;;;;;;1.00;0.80;;;9.20;95.50;;;9.63;63.05;98675.81;4968417;28;113538;-76
2022/12/30 04:42:43;;;;;;;1.43;1.00;;;9.10;95.70;;;9.60;62.65;98676.41;4949935;28;122948;-76
2022/12/30 04:45:10;;;;;;;0.80;0.80;;;9.20;95.40;;;9.58;62.78;98681.44;4963319;28;122737;-77
2022/12/30 04:47:37;;;;;;;1.40;1.00;;;9.10;95.40;;;9.54;62.68;98685.94;4967265;28;115021;-77
2022/12/30 04:50:05;;;;;;;2.93;1.00;;;9.10;95.30;;;9.53;62.72;98681.53;5003225;28;114943;-77
2022/12/30 04:52:31;;;;;;;1.30;1.00;;;9.10;95.30;;;9.52;62.96;98671.63;4963823;28;123795;-78
2022/12/30 04:54:58;;;;;;;1.67;1.50;;;9.00;95.30;;;9.51;62.57;98675.53;4958139;28;123896;-77
2022/12/30 04:57:24;;;;;;;1.33;0.90;;;9.00;95.30;;;9.46;62.74;98670.94;4968489;28;114438;-76
2022/12/30 04:59:50;;;;;;;1.00;0.90;;;9.00;95.20;;;9.45;62.80;98685.81;4983550;28;113505;-76
2022/12/30 05:02:17;;;;;;;3.30;0.90;;;9.00;95.20;;;9.44;62.86;98691.66;4986428;28;123452;-76
2022/12/30 05:04:43;;;;;;;1.33;1.00;;;9.00;95.20;;;9.43;62.81;98684.50;4968618;28;123716;-76
2022/12/30 05:07:11;;;;;;;1.40;0.97;;;9.00;95.20;;;9.41;62.52;98681.25;4959128;28;114308;-76
2022/12/30 05:09:37;;;;;;;0.93;0.83;;;8.90;95.10;;;9.38;62.50;98687.38;4966643;28;113554;-76
2022/12/30 05:12:04;;;;;;;2.17;0.90;;;8.90;95.10;;;9.35;62.64;98690.72;4969315;28;123836;-77
2022/12/30 05:14:31;;;;;;;1.70;0.93;;;8.90;95.10;;;9.32;62.51;98680.31;4970838;28;124077;-76
2022/12/30 05:16:57;;;;;;;1.10;0.93;;;8.90;95.10;;;9.29;62.70;98688.09;4968976;28;113619;-76
2022/12/30 05:19:24;;;;;;;2.00;1.00;;;8.80;95.10;;;9.29;62.48;98696.38;4968253;28;114235;-76
2022/12/30 05:21:50;;;;;;;1.03;0.93;;;8.80;95.10;;;9.29;62.38;98690.03;4956698;28;123947;-76
2022/12/30 05:27:03;;;;;;;2.43;1.00;;;8.80;95.00;;;9.21;62.39;98686.03;4997593;28;114827;-77
2022/12/30 05:29:29;;;;;;;1.00;0.90;;;8.80;95.00;;;9.21;62.68;98682.47;4965373;28;113936;-77
2022/12/30 05:31:56;;;;;;;1.20;0.90;;;8.80;95.00;;;9.20;62.65;98686.34;4958052;28;123806;-76
2022/12/30 05:34:22;;;;;;;1.00;0.90;;;8.80;95.00;;;9.22;62.63;98687.69;4968322;28;123746;-76
2022/12/30 05:36:49;;;;;;;1.17;1.07;;;8.80;95.00;;;9.23;62.38;98691.25;4982889;28;115428;-76
2022/12/30 05:39:16;;;;;;;1.10;0.90;;;8.80;95.00;;;9.25;62.32;98691.78;5002537;28;113963;-76
2022/12/30 05:41:42;;;;;;;1.10;0.90;;;8.80;95.00;;;9.25;62.53;98695.34;4970945;28;123483;-76
2022/12/30 05:44:11;;;;;;;0.80;0.80;;;8.80;95.00;;;9.27;62.22;98695.88;4962469;28;123853;-76
2022/12/30 05:46:38;;;;;;;1.40;0.90;;;8.00;94.60;;;9.28;62.19;98700.25;4960248;28;114309;-76
2022/12/30 05:49:05;;;;;;;1.47;1.00;;;8.80;95.20;;;9.28;62.39;98693.91;4968427;28;113749;-76
2022/12/30 05:51:31;;;;;;;0.93;0.83;;;8.80;94.90;;;9.27;62.41;98700.56;4968159;28;123991;-77
2022/12/30 05:53:58;;;;;;;1.20;0.93;;;8.80;94.90;;;9.26;62.33;98694.22;4968668;28;123976;-78
2022/12/30 05:56:25;;;;;;;1.30;1.03;;;8.80;94.90;;;9.26;62.45;98696.97;4969247;28;113509;-77
2022/12/30 05:58:52;;;;;;;1.23;0.93;;;8.90;94.90;;;9.26;61.96;98693.41;4966860;28;114011;-77
2022/12/30 06:01:19;;;;;;;1.73;1.00;;;8.80;94.90;;;9.25;62.38;98697.28;4971795;28;124023;-77
2022/12/30 06:03:45;;;;;;;1.00;0.90;;;8.80;94.80;;;9.25;62.30;98686.25;4975069;28;123340;-76
2022/12/30 06:06:12;;;;;;;1.10;0.90;;;8.80;95.20;;;9.25;62.25;98689.84;4973626;28;114341;-77
2022/12/30 06:08:39;;;;;;;1.20;0.80;;;8.80;94.80;;;9.23;62.32;98689.31;4970145;28;113974;-76
2022/12/30 06:11:06;;;;;;;1.30;1.00;;;9.10;94.90;;;9.23;61.88;98700.34;4971670;28;123097;-76
2022/12/30 06:13:33;;;;;;;1.20;0.93;;;8.70;94.80;;;9.22;61.90;98693.19;4971077;28;123734;-76
2022/12/30 06:15:59;;;;;;;1.73;1.00;;;8.80;94.80;;;9.22;62.23;98689.63;4972169;28;113175;-77
2022/12/30 06:18:26;;;;;;;0.80;0.80;;;8.70;94.80;;;9.21;61.88;98688.78;4974817;28;114531;-76
2022/12/30 06:20:54;;;;;;;0.87;0.80;;;8.70;94.80;;;9.20;61.74;98697.38;4970695;28;124193;-76
2022/12/30 06:23:21;;;;;;;1.63;1.00;;;8.70;94.70;;;9.19;62.11;98688.31;4970806;28;123844;-77
2022/12/30 06:25:57;;;;;;;1.30;1.00;;;9.40;95.00;;;9.19;61.76;98687.50;4971094;28;115297;-76
2022/12/30 06:28:25;;;;;;;1.10;1.00;;;8.90;94.80;;;9.16;61.83;98679.81;4970718;28;115451;-77
2022/12/30 06:30:52;;;;;;;1.50;1.00;;;8.70;94.70;;;9.16;61.71;98677.91;4975219;28;122058;-77
2022/12/30 06:33:19;;;;;;;1.20;0.90;;;8.70;94.70;;;9.17;61.77;98681.47;4973843;28;123712;-78
2022/12/30 06:35:47;;;;;;;4.50;1.00;;;8.70;94.70;;;9.18;62.25;98691.34;4982387;28;113606;-77
2022/12/30 06:38:13;;;;;;;1.00;0.80;;;8.70;94.70;;;9.18;62.11;98688.59;4966342;28;114169;-76
2022/12/30 06:40:40;;;;;;;1.10;0.90;;;8.70;94.70;;;9.18;61.84;98697.69;5005057;28;124139;-77
2022/12/30 06:43:07;;;;;;;1.40;0.97;;;8.70;94.70;;;9.17;62.04;98696.06;4971631;28;124014;-77
2022/12/30 06:45:36;;;;;;;2.30;0.90;;;8.70;94.70;;;9.15;61.79;98690.03;4985311;28;113650;-79
2022/12/30 06:48:04;;;;;;;0.80;0.80;;;8.70;94.70;;;9.12;61.94;98682.38;4974556;28;114401;-76
2022/12/30 06:50:31;;;;;;;1.63;0.90;;;8.60;94.60;;;9.11;61.85;98691.78;4973537;28;123998;-76
2022/12/30 06:52:58;;;;;;;2.03;0.90;;;8.70;94.70;;;9.11;61.64;98691.78;4985490;28;122685;-77
2022/12/30 06:55:24;;;;;;;1.10;1.00;;;8.70;94.70;;;9.10;61.75;98690.13;4959623;28;114105;-77
2022/12/30 06:57:51;;;;;;;1.10;0.90;;;8.60;94.70;;;9.11;62.10;98683.50;4968632;28;114457;-76
2022/12/30 07:00:18;;;;;;;1.20;0.90;;;8.60;94.60;;;9.12;61.72;98682.38;4963279;28;123900;-76
2022/12/30 07:02:44;;;;;;;1.10;1.00;;;8.70;94.70;;;9.12;61.94;98687.06;4968610;28;123767;-76
2022/12/30 07:05:11;;;;;;;1.00;0.80;;;8.70;94.70;;;9.11;61.85;98683.50;4970640;28;113398;-76
2022/12/30 07:07:37;;;;;;;1.00;0.90;;;8.60;94.60;;;9.12;61.74;98681.56;4967612;28;112905;-76
2022/12/30 07:10:04;;;;;;;3.67;1.00;;;8.60;94.60;;;9.11;61.56;98689.03;4987186;28;123311;-76
2022/12/30 07:12:31;;;;;;;1.07;0.90;;;8.60;94.60;;;9.11;61.72;98690.94;4954880;28;123388;-76
2022/12/30 07:14:58;;;;;;;1.53;1.00;;;8.60;94.60;;;9.09;61.86;98693.19;4970314;28;115422;-76
2022/12/30 07:17:24;;;;;;;1.83;1.23;;;8.60;94.60;;;9.10;61.61;98694.81;4968918;28;114842;-76
2022/12/30 07:19:50;;;;;;;1.10;1.00;;;8.70;94.60;;;9.10;61.64;98701.16;4967768;28;122922;-76
2022/12/30 07:22:17;;;;;;;1.10;1.00;;;8.60;94.60;;;9.09;61.57;98699.53;4960685;28;124295;-77
2022/12/30 07:24:44;;;;;;;2.50;1.30;;;8.60;94.60;;;9.08;61.91;98700.66;4971467;28;112901;-76
2022/12/30 07:27:11;;;;;;;1.85;1.00;;;8.80;94.60;;;9.07;61.38;98697.06;4969638;28;114580;-77
2022/12/30 07:29:41;;;;;;;1.90;1.10;;;8.80;94.60;;;9.07;62.05;98702.56;4969157;28;123964;-76
2022/12/30 07:32:09;;;;;;;2.70;1.27;;;8.60;94.60;;;9.06;61.67;98702.91;4960908;28;122937;-76
2022/12/30 07:34:39;;;;;;;2.47;1.30;;;9.60;95.00;;;9.04;61.64;98696.88;4966421;28;113277;-78
2022/12/30 07:37:05;;;;;;;2.07;1.63;;;8.50;94.50;;;8.99;61.92;98699.72;4967359;28;113865;-77
2022/12/30 07:39:32;;;;;;;2.60;1.83;;;9.10;94.80;;;8.95;61.77;98702.28;4965655;28;124324;-78
2022/12/30 07:41:59;;;;;;;3.13;1.40;;;8.40;94.60;;;8.91;61.92;98703.19;4969791;28;123119;-77
2022/12/30 07:44:25;;;;;;;2.53;1.67;;;8.40;94.60;;;8.82;61.92;98705.81;4970266;28;113438;-77
2022/12/30 07:46:52;;;;;;;6.67;3.47;;;8.30;94.70;;;8.75;62.28;98703.44;4968721;28;114108;-78
2022/12/30 07:49:19;;;;;;;4.43;2.93;;;8.20;94.80;;;8.72;62.22;98695.78;4968680;28;124048;-77
2022/12/30 07:51:45;;;;;;;3.87;2.33;;;9.40;95.30;;;8.73;62.61;98691.94;4966428;28;123897;-77
2022/12/30 07:54:12;;;;;;;6.13;3.27;;;6.90;94.40;;;8.74;62.55;98690.81;4980194;28;113492;-77
2022/12/30 07:56:38;;;;;;;3.80;2.20;;;8.20;94.90;;;8.77;62.44;98686.63;4970937;28;113621;-77
2022/12/30 07:59:05;;;;;;;2.97;1.80;;;8.20;95.00;;;8.83;62.71;98690.91;4968442;28;124103;-78
2022/12/30 08:01:31;;;;;;;4.13;2.47;;;8.30;95.00;;;8.85;62.65;98689.50;4968419;28;125745;-77
2022/12/30 08:03:58;;;;;;;2.50;1.70;;;8.40;95.00;;;8.90;62.50;98693.28;4999198;28;115297;-77
2022/12/30 08:06:24;;;;;;;1.97;1.20;;;8.30;95.00;;;8.92;62.49;98688.25;4971908;28;117361;-77
2022/12/30 08:08:51;;;;;;;1.70;1.40;;;8.40;95.00;;;8.94;62.50;98683.28;4971361;28;123941;-78
2022/12/30 08:11:17;;;;;;;3.57;1.60;;;8.40;95.00;;;8.96;62.22;98689.31;4966792;28;123598;-77
2022/12/30 08:13:44;;;;;;;1.67;1.40;;;8.50;95.00;;;8.98;62.61;98687.06;4951890;28;113702;-77
2022/12/30 08:16:14;;;;;;;1.90;1.40;;;8.40;95.00;;;8.97;62.34;98688.16;4968809;28;114043;-79
2022/12/30 08:18:42;;;;;;;1.93;1.57;;;8.40;95.00;;;8.97;62.68;98690.94;4965381;28;123877;-78
2022/12/30 08:21:13;;;;;;;1.80;1.50;;;8.40;95.00;;;9.00;62.56;98685.66;4960587;28;123783;-77
2022/12/30 08:23:42;;;;;;;3.10;1.67;;;8.50;95.10;;;9.04;62.42;98694.09;4959376;28;114156;-76
2022/12/30 08:26:14;;;;;;;1.70;1.27;;;8.50;95.10;;;9.06;62.36;98692.69;4965880;28;113948;-76
2022/12/30 08:28:41;;;;;;;3.17;1.60;;;8.50;95.10;;;9.10;62.65;98695.63;4967793;28;124335;-76
2022/12/30 08:31:20;;;;;;;4.80;2.30;;;8.50;95.10;;;9.16;62.30;98680.66;4962876;28;123838;-77
2022/12/30 08:33:47;;;;;;;4.30;2.07;;;8.60;95.10;;;9.15;62.49;98673.50;4960627;28;114474;-77
2022/12/30 08:36:19;;;;;;;3.70;2.10;;;8.60;95.00;;;9.16;63.06;98666.03;4960862;28;114079;-79
2022/12/30 08:38:49;;;;;;;4.30;2.47;;;9.60;95.80;;;9.18;63.49;98659.09;4991113;28;124534;-77
2022/12/30 08:41:29;;;;;;;3.27;1.90;;;9.00;95.80;;;9.23;63.66;98670.00;4964015;28;124098;-78
2022/12/30 08:43:58;;;;;;;2.50;1.77;;;8.60;95.80;;;9.21;63.69;98668.69;4964545;28;114574;-78
2022/12/30 08:46:26;;;;;;;1.90;1.50;;;8.80;95.70;;;9.21;63.48;98657.66;4964751;28;113874;-78
2022/12/30 08:48:53;;;;;;;2.47;1.60;;;8.70;95.70;;;9.24;63.52;98660.63;4955401;28;124171;-77
2022/12/30 08:51:20;;;;;;;5.97;1.97;;;8.70;95.80;;;9.30;63.23;98650.31;4953307;28;123421;-78
2022/12/30 08:53:47;;;;;;;2.37;1.63;;;8.70;95.70;;;9.29;62.88;98644.00;4966514;28;114121;-78
2022/12/30 08:56:17;;;;;;;2.47;1.97;;;8.70;95.40;;;9.29;62.84;98649.50;4970393;28;114927;-77
2022/12/30 08:58:45;;;;;;;2.63;1.60;;;8.70;95.30;;;9.31;62.46;98640.09;4969756;28;124058;-79
2022/12/30 09:01:24;;;;;;;2.80;1.60;;;8.70;95.20;;;9.35;62.29;98639.19;4969257;28;124213;-78
2022/12/30 09:03:55;;;;;;;2.10;1.43;;;8.80;95.20;;;9.39;62.20;98633.88;4981588;28;114305;-79
2022/12/30 09:06:26;;;;;;;4.70;1.67;;;8.80;95.20;;;9.44;62.05;98628.25;4969021;28;113892;-78
2022/12/30 09:08:54;;;;;;;2.40;1.47;;;8.90;95.10;;;9.45;61.81;98641.69;4968088;28;123220;-79
2022/12/30 09:11:26;;;;;;;1.63;1.47;;;8.90;95.10;;;9.47;61.93;98633.13;4974320;28;123786;-81
2022/12/30 09:13:52;;;;;;;3.33;1.50;;;8.90;95.00;;;9.51;61.86;98640.50;4970864;28;113561;-81
2022/12/30 09:16:21;;;;;;;2.27;1.60;;;9.50;95.20;;;9.57;61.76;98632.91;4969875;28;114051;-77
2022/12/30 09:18:49;;;;;;;2.63;1.60;;;9.50;95.40;;;9.61;61.60;98627.59;4970533;28;124451;-79
2022/12/30 09:21:16;;;;;;;2.30;1.50;;;9.10;94.90;;;9.64;61.57;98629.72;4963773;28;123611;-79
2022/12/30 09:23:43;;;;;;;1.80;1.47;;;9.10;94.80;;;9.69;61.64;98632.38;4972780;28;114454;-79
2022/12/30 09:26:15;;;;;;;2.83;1.50;;;9.10;94.70;;;9.72;61.38;98632.56;4960780;28;114679;-76
2022/12/30 09:28:42;;;;;;;1.47;1.20;;;9.20;94.70;;;9.78;61.93;98615.88;4965752;28;124015;-74
2022/12/30 09:31:09;;;;;;;3.40;1.60;;;9.20;94.90;;;9.92;62.68;98627.69;4967464;28;123480;-77
2022/12/30 09:33:35;;;;;;;2.27;1.87;;;9.30;95.40;;;10.01;62.01;98628.56;4967852;28;113515;-77
2022/12/30 09:36:04;;;;;;;1.70;1.50;;;9.40;95.30;;;10.06;61.54;98624.88;4968165;28;113971;-79
2022/12/30 09:38:30;;;;;;;2.70;1.50;;;9.40;95.10;;;10.08;61.44;98615.16;4968025;28;123065;-78
2022/12/30 09:41:13;;;;;;;2.13;1.10;;;9.50;94.90;;;10.09;60.57;98616.78;4967598;28;123688;-78
2022/12/30 09:44:03;;;;;;;2.00;1.53;;;9.50;94.60;;;10.07;60.15;98609.94;4969671;28;115104;-77
2022/12/30 09:46:48;;;;;;;2.80;1.73;;;9.50;94.60;;;10.06;60.15;98600.84;4969795;28;115007;-78
2022/12/30 09:49:53;;;;;;;1.23;1.10;;;9.50;94.30;;;10.07;60.35;98596.13;4965190;28;123823;-77
2022/12/30 09:52:29;;;;;;;2.23;1.57;;;9.50;94.20;;;10.08;60.01;98590.31;4872827;28;122738;-77
2022/12/30 09:55:17;;;;;;;3.00;1.13;;;9.50;94.20;;;10.14;60.34;98586.28;4964065;28;113407;-77
2022/12/30 09:57:51;;;;;;;2.50;1.63;;;9.60;94.20;;;10.20;59.93;98572.38;4991399;28;114647;-80
2022/12/30 10:00:21;;;;;;;2.47;2.10;;;9.60;94.10;;;10.22;59.60;98570.91;4970227;28;126553;-79
2022/12/30 10:03:01;;;;;;;1.40;1.20;;;9.60;94.00;;;10.26;59.92;98563.66;4980428;28;123696;-79
2022/12/30 10:05:43;;;;;;;3.67;1.60;;;9.70;94.00;;;10.30;59.67;98556.38;4967852;28;114544;-79
2022/12/30 10:08:25;;;;;;;1.87;1.30;;;9.70;93.90;;;10.36;59.63;98549.56;4968054;28;113921;-78
2022/12/30 10:11:29;;;;;;;2.33;1.43;;;9.80;93.90;;;10.40;59.39;98544.25;4972974;28;124120;-80
2022/12/30 10:14:21;;;;;;;3.23;1.20;;;9.80;93.70;;;10.46;59.12;98537.44;4964585;28;124262;-79
2022/12/30 10:17:23;;;;;;;1.30;1.20;;;9.90;94.10;;;10.51;59.11;98530.97;4982128;28;113780;-80
2022/12/30 10:20:46;;;;;;;1.93;1.47;;;9.90;93.70;;;10.56;58.79;98520.59;4969987;28;113870;-79
2022/12/30 10:23:27;;;;;;;2.27;1.30;;;10.00;93.20;;;10.64;58.85;98524.53;4969496;28;124043;-78
2022/12/30 10:26:03;;;;;;;2.30;1.20;;;10.10;93.20;;;10.71;58.59;98510.22;4966330;28;123637;-79
2022/12/30 10:28:37;;;;;;;3.03;1.37;;;10.10;93.10;;;10.78;58.43;98507.81;4967418;28;114118;-78
2022/12/30 10:31:07;;;;;;;2.13;1.40;;;10.20;93.00;;;10.83;58.35;98510.44;4963301;28;113870;-79
2022/12/30 10:33:35;;;;;;;1.30;1.10;;;10.20;92.90;;;10.89;58.04;98495.34;5001589;28;124896;-79
2022/12/30 10:36:54;;;;;;;2.00;1.10;;;10.30;92.90;;;10.98;58.39;98489.81;4978470;28;123622;-86
2022/12/30 10:39:25;;;;;;;2.07;1.20;;;10.40;93.00;;;11.06;57.93;98506.41;4947997;28;113599;-78
2022/12/30 10:42:49;;;;;;;1.83;1.30;;;10.50;93.00;;;11.12;57.75;98492.44;4960221;28;115065;-79
2022/12/30 10:45:59;;;;;;;1.90;1.23;;;10.50;92.60;;;11.17;57.73;98500.56;4936565;28;124276;-77
2022/12/30 10:48:50;;;;;;;1.20;1.10;;;10.60;92.60;;;11.24;57.54;98484.31;4971912;28;123871;-77
2022/12/30 10:51:17;;;;;;;2.30;1.50;;;10.70;92.60;;;11.31;57.16;98479.13;4970343;28;114958;-78
2022/12/30 10:53:47;;;;;;;2.40;1.30;;;10.70;92.50;;;11.40;57.44;98484.66;4966151;28;114189;-77
2022/12/30 10:56:23;;;;;;;1.47;1.10;;;10.80;92.40;;;11.52;57.39;98481.22;4957782;28;123374;-80
2022/12/30 10:58:53;;;;;;;1.77;1.40;;;11.00;92.50;;;11.60;56.31;98478.44;4966867;28;125608;-82
2022/12/30 11:01:35;;;;;;;5.40;1.27;;;11.00;92.20;;;11.66;56.17;98468.00;4972877;28;114148;-79
2022/12/30 11:04:02;;;;;;;1.30;1.20;;;11.00;92.10;;;11.71;56.18;98459.53;4968738;28;113407;-81
2022/12/30 11:06:35;;;;;;;1.83;1.20;;;11.10;92.00;;;11.79;56.19;98460.66;5001159;28;122479;-77
2022/12/30 11:09:11;;;;;;;2.00;1.43;;;11.20;91.90;;;11.87;56.16;98455.13;4995392;28;123099;-77
2022/12/30 11:14:55;;;;;;;1.73;1.00;;;11.40;91.90;;;12.11;55.85;98448.22;4958949;28;116198;-78
2022/12/30 11:17:26;;;;;;;1.90;1.20;;;11.50;91.90;;;12.20;55.53;98449.03;4955727;28;124006;-77
2022/12/30 11:20:06;;;;;;;2.03;1.20;;;12.10;92.00;;;12.28;55.16;98447.38;4956599;28;122983;-78
2022/12/30 11:22:32;;;;;;;1.33;1.10;;;11.60;91.70;;;12.32;55.05;98454.66;4971217;28;114944;-78
2022/12/30 11:25:27;;;;;;;3.07;1.40;;;11.70;91.40;;;12.34;55.02;98446.84;4965369;28;114348;-78
2022/12/30 11:27:57;;;;;;;1.60;1.30;;;11.70;91.40;;;12.43;54.95;98441.25;4969877;28;124101;-80
2022/12/30 11:30:37;;;;;;;2.20;1.20;;;11.80;91.50;;;12.54;54.65;98444.47;4978937;28;123544;-79
2022/12/30 11:33:16;;;;;;;2.60;1.07;;;11.90;91.40;;;12.62;54.53;98431.72;4966116;28;116013;-78
2022/12/30 11:35:48;;;;;;;1.93;1.20;;;12.00;91.40;;;12.69;54.47;98429.22;4957122;28;114945;-79
2022/12/30 11:38:38;;;;;;;1.50;1.07;;;12.10;91.40;;;12.80;54.09;98428.50;4983855;28;123020;-80
2022/12/30 11:41:17;;;;;;;2.20;1.10;;;12.20;91.20;;;12.92;54.07;98438.03;4961460;28;123766;-79